Time;durP1;ratioP1;P1;durP2;ratioP2;P2;SDS_P1;SDS_P2;PMS_P1;PMS_P2;Temp;Humidity;BMP_temperature;BMP_pressure;BME280_temperature;BME280_humidity;BME280_pressure;Samples;Min_cycle;Max_cycle;Signal;HPM_P1;HPM_P2
2023/05/29 00:01:43;;;;;;;24.37;10.73;;;;;;;;;;5027439;28;20232;-75
2023/05/29 00:04:12;;;;;;;27.13;10.73;;;;;;;;;;5033207;28;20280;-75
2023/05/29 00:06:40;;;;;;;24.13;10.63;;;;;;;;;;5033085;28;20729;-76
2023/05/29 00:09:08;;;;;;;20.43;10.27;;;;;;;;;;5036868;28;20195;-75
2023/05/29 00:11:35;;;;;;;23.50;11.27;;;;;;;;;;5053543;28;20253;-76
2023/05/29 00:14:02;;;;;;;22.37;10.83;;;;;;;;;;5050184;28;20197;-75
2023/05/29 00:16:30;;;;;;;20.90;10.60;;;;;;;;;;5033333;28;20228;-75
2023/05/29 00:18:57;;;;;;;20.27;10.10;;;;;;;;;;5032881;28;20200;-75
2023/05/29 00:21:25;;;;;;;24.27;10.87;;;;;;;;;;5033183;28;20192;-77
2023/05/29 00:23:53;;;;;;;23.33;10.00;;;;;;;;;;5033189;28;20214;-75
2023/05/29 00:26:21;;;;;;;22.50;10.63;;;;;;;;;;5033256;28;20291;-76
2023/05/29 00:28:48;;;;;;;26.17;11.37;;;;;;;;;;5033150;28;20211;-76
2023/05/29 00:31:15;;;;;;;21.77;10.83;;;;;;;;;;5032216;28;20205;-76
2023/05/29 00:33:42;;;;;;;25.33;11.07;;;;;;;;;;5032812;28;20327;-76
2023/05/29 00:36:10;;;;;;;23.37;10.30;;;;;;;;;;5032907;28;20303;-75
2023/05/29 00:38:37;;;;;;;21.77;10.47;;;;;;;;;;5033334;28;20227;-76
2023/05/29 00:41:06;;;;;;;19.10;10.50;;;;;;;;;;5032869;28;20192;-75
2023/05/29 00:43:33;;;;;;;18.57;10.07;;;;;;;;;;5032571;28;20234;-75
2023/05/29 00:46:00;;;;;;;22.07;10.60;;;;;;;;;;5032233;28;20284;-76
2023/05/29 00:48:28;;;;;;;27.10;10.80;;;;;;;;;;5032730;28;20208;-76
2023/05/29 00:50:55;;;;;;;22.37;10.87;;;;;;;;;;5032675;28;20231;-75
2023/05/29 00:53:22;;;;;;;23.13;10.40;;;;;;;;;;5032574;28;20218;-76
2023/05/29 00:55:49;;;;;;;20.90;10.30;;;;;;;;;;5032841;28;20207;-76
2023/05/29 00:58:18;;;;;;;18.83;10.17;;;;;;;;;;5031985;28;20320;-75
2023/05/29 01:00:45;;;;;;;19.77;10.67;;;;;;;;;;5032081;28;20752;-75
2023/05/29 01:03:16;;;;;;;22.87;10.37;;;;;;;;;;5032609;28;20196;-75
2023/05/29 01:05:43;;;;;;;27.10;11.97;;;;;;;;;;5032798;28;20638;-75
2023/05/29 01:08:11;;;;;;;19.47;10.17;;;;;;;;;;5032481;28;20200;-75
2023/05/29 01:10:38;;;;;;;20.87;10.13;;;;;;;;;;5032204;28;20203;-75
2023/05/29 01:13:08;;;;;;;16.83;9.97;;;;;;;;;;5031802;28;20677;-76
2023/05/29 01:15:43;;;;;;;20.13;10.30;;;;;;;;;;5032405;28;20215;-75
2023/05/29 01:18:20;;;;;;;24.07;10.67;;;;;;;;;;5032037;28;20325;-75
2023/05/29 01:20:50;;;;;;;22.70;10.03;;;;;;;;;;5032357;28;20258;-75
2023/05/29 01:23:39;;;;;;;21.53;10.37;;;;;;;;;;5031701;28;20201;-76
2023/05/29 01:26:13;;;;;;;23.17;11.17;;;;;;;;;;5032054;28;20219;-75
2023/05/29 01:28:43;;;;;;;20.30;11.20;;;;;;;;;;5031528;28;20203;-74
2023/05/29 01:31:11;;;;;;;22.47;10.53;;;;;;;;;;5032131;28;20671;-75
2023/05/29 01:33:41;;;;;;;23.00;10.40;;;;;;;;;;5031676;28;20677;-75
2023/05/29 01:36:09;;;;;;;22.03;10.47;;;;;;;;;;5031939;28;20192;-75
2023/05/29 01:38:36;;;;;;;21.60;10.80;;;;;;;;;;5031827;28;20224;-75
2023/05/29 01:41:04;;;;;;;21.20;10.30;;;;;;;;;;5031768;28;20228;-75
2023/05/29 01:43:32;;;;;;;26.17;10.63;;;;;;;;;;5031578;28;20209;-75
2023/05/29 01:46:01;;;;;;;20.40;10.20;;;;;;;;;;5031355;28;20291;-75
2023/05/29 01:48:29;;;;;;;21.50;10.27;;;;;;;;;;5031713;28;20224;-76
2023/05/29 01:50:56;;;;;;;17.80;9.57;;;;;;;;;;5031401;28;20295;-75
2023/05/29 01:53:23;;;;;;;20.30;10.47;;;;;;;;;;5031846;28;20295;-75
2023/05/29 01:55:51;;;;;;;21.30;10.23;;;;;;;;;;5031790;28;20196;-75
2023/05/29 01:58:20;;;;;;;20.43;9.43;;;;;;;;;;5031038;28;20228;-75
2023/05/29 02:00:47;;;;;;;18.47;10.60;;;;;;;;;;5027778;28;20196;-75
2023/05/29 02:03:15;;;;;;;20.40;10.77;;;;;;;;;;5020543;28;20688;-75
2023/05/29 02:05:43;;;;;;;18.37;10.03;;;;;;;;;;5011080;28;20288;-76
2023/05/29 02:08:10;;;;;;;19.30;10.50;;;;;;;;;;5011871;28;20287;-75
2023/05/29 02:10:37;;;;;;;18.67;10.13;;;;;;;;;;5011544;28;20289;-75
2023/05/29 02:13:04;;;;;;;19.60;10.13;;;;;;;;;;5011365;28;20288;-75
2023/05/29 02:15:31;;;;;;;21.40;9.93;;;;;;;;;;5041484;28;20207;-76
2023/05/29 02:18:00;;;;;;;19.50;9.77;;;;;;;;;;5050901;28;20322;-75
2023/05/29 02:20:29;;;;;;;19.17;9.73;;;;;;;;;;5051361;28;20237;-75
2023/05/29 02:22:56;;;;;;;20.90;10.70;;;;;;;;;;5051576;28;20246;-75
2023/05/29 02:25:23;;;;;;;19.37;10.00;;;;;;;;;;5050728;28;20291;-75
2023/05/29 02:27:50;;;;;;;23.77;9.90;;;;;;;;;;5051336;28;20191;-75
2023/05/29 02:30:17;;;;;;;17.00;9.90;;;;;;;;;;5051072;28;20287;-75
2023/05/29 02:32:45;;;;;;;17.97;9.53;;;;;;;;;;5051172;28;20192;-76
2023/05/29 02:35:14;;;;;;;19.27;9.90;;;;;;;;;;5050846;28;20246;-76
2023/05/29 02:37:43;;;;;;;19.67;10.00;;;;;;;;;;5050883;28;20219;-76
2023/05/29 02:40:11;;;;;;;20.20;10.30;;;;;;;;;;5050232;28;20242;-75
2023/05/29 02:42:38;;;;;;;18.97;10.10;;;;;;;;;;5050801;28;20283;-75
2023/05/29 02:45:07;;;;;;;18.53;9.60;;;;;;;;;;5051274;28;20677;-76
2023/05/29 02:47:34;;;;;;;19.07;9.70;;;;;;;;;;5050715;28;20290;-76
2023/05/29 02:50:02;;;;;;;19.07;10.13;;;;;;;;;;5051083;28;20202;-76
2023/05/29 02:52:30;;;;;;;17.17;9.50;;;;;;;;;;5050866;28;20208;-76
2023/05/29 02:54:58;;;;;;;21.37;10.47;;;;;;;;;;5050422;28;20250;-76
2023/05/29 02:57:26;;;;;;;21.67;9.80;;;;;;;;;;5050784;28;20231;-76
2023/05/29 02:59:54;;;;;;;21.37;9.90;;;;;;;;;;5050448;28;20200;-76
2023/05/29 03:02:22;;;;;;;19.80;9.73;;;;;;;;;;5050919;28;20277;-75
2023/05/29 03:04:50;;;;;;;18.43;9.50;;;;;;;;;;5036162;28;20760;-75
2023/05/29 03:07:18;;;;;;;17.43;9.30;;;;;;;;;;5030466;28;20203;-75
2023/05/29 03:09:45;;;;;;;17.77;9.70;;;;;;;;;;5030485;28;20203;-75
2023/05/29 03:12:14;;;;;;;19.27;9.37;;;;;;;;;;5030593;28;20254;-76
2023/05/29 03:14:41;;;;;;;21.90;9.67;;;;;;;;;;5030781;28;20295;-74
2023/05/29 03:17:08;;;;;;;15.80;8.90;;;;;;;;;;5033654;28;20288;-76
2023/05/29 03:19:36;;;;;;;21.20;9.57;;;;;;;;;;5034371;28;20291;-76
2023/05/29 03:22:04;;;;;;;20.50;10.03;;;;;;;;;;5034335;28;20203;-76
2023/05/29 03:24:31;;;;;;;19.33;9.87;;;;;;;;;;5033793;28;20219;-75
2023/05/29 03:26:58;;;;;;;20.93;9.83;;;;;;;;;;5034048;28;20284;-76
2023/05/29 03:29:26;;;;;;;19.97;9.23;;;;;;;;;;5034524;28;20283;-75
2023/05/29 03:31:54;;;;;;;20.07;10.03;;;;;;;;;;5034038;28;20251;-75
2023/05/29 03:34:21;;;;;;;17.77;9.07;;;;;;;;;;5033863;28;20705;-76
2023/05/29 03:36:49;;;;;;;18.70;9.17;;;;;;;;;;5033922;28;20205;-75
2023/05/29 03:39:16;;;;;;;18.53;9.23;;;;;;;;;;5033590;28;20220;-75
2023/05/29 03:41:43;;;;;;;18.37;9.30;;;;;;;;;;5034327;28;20235;-76
2023/05/29 03:44:10;;;;;;;18.17;8.80;;;;;;;;;;5033790;28;20201;-75
2023/05/29 03:46:39;;;;;;;21.37;9.17;;;;;;;;;;5033667;28;20247;-76
2023/05/29 03:49:07;;;;;;;15.90;9.03;;;;;;;;;;5033802;28;20200;-75
2023/05/29 03:51:35;;;;;;;15.70;8.57;;;;;;;;;;5033691;28;20201;-75
2023/05/29 03:54:02;;;;;;;18.77;8.53;;;;;;;;;;5033271;28;20240;-76
2023/05/29 03:56:30;;;;;;;16.47;8.60;;;;;;;;;;5033753;28;20236;-75
2023/05/29 03:58:57;;;;;;;19.13;8.97;;;;;;;;;;5033709;28;20232;-75
2023/05/29 04:01:24;;;;;;;14.80;8.33;;;;;;;;;;5033486;28;20220;-76
2023/05/29 04:03:53;;;;;;;16.43;9.10;;;;;;;;;;5033542;28;20296;-76
2023/05/29 04:06:20;;;;;;;15.87;8.53;;;;;;;;;;5033881;28;20311;-75
2023/05/29 04:08:47;;;;;;;18.77;9.03;;;;;;;;;;5032945;28;20197;-75
2023/05/29 04:11:14;;;;;;;16.10;8.03;;;;;;;;;;5033514;28;20196;-75
2023/05/29 04:13:41;;;;;;;21.20;8.63;;;;;;;;;;5033656;28;20231;-75
2023/05/29 04:16:09;;;;;;;17.03;8.53;;;;;;;;;;5052959;28;20199;-75
2023/05/29 04:18:36;;;;;;;18.63;8.33;;;;;;;;;;5053360;28;20707;-75
2023/05/29 04:21:05;;;;;;;15.57;8.80;;;;;;;;;;5052911;28;20202;-74
2023/05/29 04:23:32;;;;;;;16.93;8.53;;;;;;;;;;5052682;28;20782;-75
2023/05/29 04:26:01;;;;;;;17.17;8.33;;;;;;;;;;5052777;28;20759;-75
2023/05/29 04:28:29;;;;;;;17.23;8.90;;;;;;;;;;5052706;28;20661;-74
2023/05/29 04:30:56;;;;;;;14.43;7.97;;;;;;;;;;5052931;28;20203;-75
2023/05/29 04:33:24;;;;;;;15.53;8.40;;;;;;;;;;5052872;28;20246;-75
2023/05/29 04:35:52;;;;;;;15.73;7.93;;;;;;;;;;5052787;28;20200;-76
2023/05/29 04:38:24;;;;;;;15.13;8.70;;;;;;;;;;5052718;28;20632;-75
2023/05/29 04:40:52;;;;;;;15.07;8.13;;;;;;;;;;5053046;28;20203;-74
2023/05/29 04:43:19;;;;;;;19.67;8.17;;;;;;;;;;5052801;28;20296;-75
2023/05/29 04:45:46;;;;;;;17.00;7.97;;;;;;;;;;5052497;28;20740;-75
2023/05/29 04:48:13;;;;;;;14.70;7.47;;;;;;;;;;5052490;28;20223;-76
2023/05/29 04:50:41;;;;;;;15.70;7.90;;;;;;;;;;5052063;28;20687;-76
2023/05/29 04:53:08;;;;;;;14.20;7.70;;;;;;;;;;5052893;28;20196;-74
2023/05/29 04:55:36;;;;;;;15.30;8.17;;;;;;;;;;5052385;28;20239;-75
2023/05/29 04:58:04;;;;;;;18.10;7.90;;;;;;;;;;5052265;28;20222;-76
2023/05/29 05:00:31;;;;;;;17.97;7.73;;;;;;;;;;5052424;28;20199;-75
2023/05/29 05:02:58;;;;;;;19.63;7.63;;;;;;;;;;5052188;28;20200;-75
2023/05/29 05:05:25;;;;;;;14.43;7.60;;;;;;;;;;5052335;28;20210;-75
2023/05/29 05:07:52;;;;;;;16.63;7.73;;;;;;;;;;5052350;28;20219;-75
2023/05/29 05:10:20;;;;;;;16.07;7.67;;;;;;;;;;5051936;28;20290;-75
2023/05/29 05:12:48;;;;;;;13.40;7.10;;;;;;;;;;5052017;28;20203;-75
2023/05/29 05:15:15;;;;;;;14.50;7.83;;;;;;;;;;5039456;28;20197;-76
2023/05/29 05:17:42;;;;;;;17.17;7.70;;;;;;;;;;5021070;28;20295;-75
2023/05/29 05:20:11;;;;;;;13.33;7.00;;;;;;;;;;5023598;28;20248;-75
2023/05/29 05:22:38;;;;;;;12.83;8.07;;;;;;;;;;5031612;28;20723;-76
2023/05/29 05:25:06;;;;;;;11.80;7.20;;;;;;;;;;5031993;28;20287;-75
2023/05/29 05:27:33;;;;;;;16.13;7.30;;;;;;;;;;5032038;28;20929;-76
2023/05/29 05:30:01;;;;;;;13.70;6.63;;;;;;;;;;5031659;28;20296;-75
2023/05/29 05:32:28;;;;;;;13.60;7.47;;;;;;;;;;5031625;28;20295;-75
2023/05/29 05:34:56;;;;;;;12.77;6.73;;;;;;;;;;5028269;28;20685;-74
2023/05/29 05:37:23;;;;;;;14.77;6.70;;;;;;;;;;5032239;28;20243;-76
2023/05/29 05:39:50;;;;;;;12.47;6.87;;;;;;;;;;5031799;28;20228;-76
2023/05/29 05:42:18;;;;;;;15.80;7.03;;;;;;;;;;5031705;28;20203;-76
2023/05/29 05:44:45;;;;;;;14.87;7.00;;;;;;;;;;5031337;28;20650;-75
2023/05/29 05:47:13;;;;;;;12.90;6.67;;;;;;;;;;5031245;28;20196;-76
2023/05/29 05:49:41;;;;;;;16.90;7.13;;;;;;;;;;5031378;28;20287;-75
2023/05/29 05:52:08;;;;;;;15.53;7.43;;;;;;;;;;5031399;28;20569;-75
2023/05/29 05:54:35;;;;;;;12.77;6.40;;;;;;;;;;5032070;28;20721;-75
2023/05/29 05:57:02;;;;;;;11.87;6.37;;;;;;;;;;5031808;28;20228;-76
2023/05/29 05:59:30;;;;;;;11.50;6.57;;;;;;;;;;5031127;28;20277;-75
2023/05/29 06:01:57;;;;;;;12.30;6.67;;;;;;;;;;5031902;28;20294;-76
2023/05/29 06:04:25;;;;;;;13.67;7.03;;;;;;;;;;5030867;28;20203;-76
2023/05/29 06:06:53;;;;;;;12.27;6.60;;;;;;;;;;5032030;28;20211;-76
2023/05/29 06:09:20;;;;;;;14.33;6.50;;;;;;;;;;5031826;28;20228;-75
2023/05/29 06:11:48;;;;;;;12.53;6.40;;;;;;;;;;5031405;28;20224;-76
2023/05/29 06:14:15;;;;;;;9.50;6.07;;;;;;;;;;5036066;28;20203;-76
2023/05/29 06:16:42;;;;;;;10.23;6.30;;;;;;;;;;5051357;28;20220;-75
2023/05/29 06:19:10;;;;;;;12.20;6.13;;;;;;;;;;5050547;28;20230;-75
2023/05/29 06:21:38;;;;;;;9.37;6.00;;;;;;;;;;5051020;28;20664;-76
2023/05/29 06:24:05;;;;;;;11.83;5.90;;;;;;;;;;5050918;28;20553;-75
2023/05/29 06:26:33;;;;;;;12.87;6.37;;;;;;;;;;5051520;28;20287;-76
2023/05/29 06:29:00;;;;;;;13.13;6.20;;;;;;;;;;5051034;28;20287;-75
2023/05/29 06:31:28;;;;;;;9.70;6.17;;;;;;;;;;5051021;28;20286;-75
2023/05/29 06:33:56;;;;;;;9.07;5.95;;;;;;;;;;5050365;28;20231;-76
2023/05/29 06:36:24;;;;;;;14.52;6.30;;;;;;;;;;5050939;28;20910;-76
2023/05/29 06:38:52;;;;;;;9.35;5.68;;;;;;;;;;5050952;28;20231;-76
2023/05/29 06:41:20;;;;;;;12.80;5.95;;;;;;;;;;5051276;28;20204;-75
2023/05/29 06:43:48;;;;;;;8.63;5.60;;;;;;;;;;5051159;28;20218;-75
2023/05/29 06:46:16;;;;;;;9.55;5.88;;;;;;;;;;5050491;28;20196;-75
2023/05/29 06:48:43;;;;;;;11.63;5.57;;;;;;;;;;5050735;28;20199;-76
2023/05/29 06:51:11;;;;;;;9.15;5.40;;;;;;;;;;5053100;28;20203;-76
2023/05/29 06:53:39;;;;;;;12.65;6.07;;;;;;;;;;5054688;28;20691;-75
2023/05/29 06:56:07;;;;;;;9.80;6.10;;;;;;;;;;5054943;28;20271;-75
2023/05/29 06:58:35;;;;;;;11.18;5.95;;;;;;;;;;5054715;28;20231;-75
2023/05/29 07:01:02;;;;;;;10.68;5.68;;;;;;;;;;5054106;28;20231;-77
2023/05/29 07:03:29;;;;;;;10.48;6.07;;;;;;;;;;5054771;28;20286;-76
2023/05/29 07:05:57;;;;;;;11.38;5.60;;;;;;;;;;5054442;28;20204;-76
2023/05/29 07:08:24;;;;;;;9.82;5.28;;;;;;;;;;5054557;28;20198;-76
2023/05/29 07:10:51;;;;;;;9.05;5.80;;;;;;;;;;5054897;28;20204;-75
2023/05/29 07:13:20;;;;;;;9.95;5.18;;;;;;;;;;5054398;28;20234;-76
2023/05/29 07:15:47;;;;;;;7.68;5.43;;;;;;;;;;5054162;28;20254;-76
2023/05/29 07:18:14;;;;;;;8.88;5.43;;;;;;;;;;5054631;28;20305;-76
2023/05/29 07:20:41;;;;;;;12.57;6.20;;;;;;;;;;5054219;28;20234;-76
2023/05/29 07:23:09;;;;;;;12.23;5.35;;;;;;;;;;5054464;28;20282;-76
2023/05/29 07:25:36;;;;;;;9.13;5.95;;;;;;;;;;5054412;28;20196;-76
2023/05/29 07:28:03;;;;;;;10.30;5.55;;;;;;;;;;5054267;28;20290;-76
2023/05/29 07:30:31;;;;;;;10.07;5.63;;;;;;;;;;5053810;28;20747;-76
2023/05/29 07:32:59;;;;;;;11.23;5.78;;;;;;;;;;5053987;28;20295;-77
2023/05/29 07:35:26;;;;;;;8.63;5.65;;;;;;;;;;5054245;28;20196;-76
2023/05/29 07:37:53;;;;;;;12.52;5.38;;;;;;;;;;5054086;28;20282;-77
2023/05/29 07:40:21;;;;;;;10.32;5.53;;;;;;;;;;5053830;28;20236;-76
2023/05/29 07:42:48;;;;;;;9.13;5.50;;;;;;;;;;5054303;28;20238;-76
2023/05/29 07:45:15;;;;;;;8.90;5.50;;;;;;;;;;5053501;28;20238;-77
2023/05/29 07:47:44;;;;;;;10.10;5.80;;;;;;;;;;5053999;28;20196;-76
2023/05/29 07:50:12;;;;;;;10.75;6.18;;;;;;;;;;5053642;28;20261;-77
2023/05/29 07:52:40;;;;;;;8.82;5.85;;;;;;;;;;5053605;28;20195;-76
2023/05/29 07:55:07;;;;;;;8.70;5.45;;;;;;;;;;5053901;28;20202;-76
2023/05/29 07:57:34;;;;;;;10.40;5.75;;;;;;;;;;5053739;28;20287;-76
2023/05/29 08:00:08;;;;;;;8.93;5.50;;;;;;;;;;5048255;28;20220;-76
2023/05/29 08:02:36;;;;;;;8.23;5.57;;;;;;;;;;5032263;28;20665;-77
2023/05/29 08:05:05;;;;;;;9.10;5.60;;;;;;;;;;5033652;28;20200;-77
2023/05/29 08:07:33;;;;;;;10.40;5.63;;;;;;;;;;5033406;28;20728;-77
2023/05/29 08:10:00;;;;;;;9.88;5.47;;;;;;;;;;5033379;28;20201;-77
2023/05/29 08:12:27;;;;;;;12.20;5.68;;;;;;;;;;5034015;28;20283;-76
2023/05/29 08:14:54;;;;;;;9.45;5.00;;;;;;;;;;5032523;28;20312;-77
2023/05/29 08:17:21;;;;;;;9.20;5.40;;;;;;;;;;5033413;28;20204;-77
2023/05/29 08:19:49;;;;;;;11.23;6.18;;;;;;;;;;5033189;28;20322;-77
2023/05/29 08:22:17;;;;;;;9.00;5.97;;;;;;;;;;5033584;28;20235;-77
2023/05/29 08:24:45;;;;;;;7.75;5.07;;;;;;;;;;5033590;28;20292;-77
2023/05/29 08:27:13;;;;;;;12.30;5.72;;;;;;;;;;5033040;28;20231;-77
2023/05/29 08:29:40;;;;;;;10.60;5.70;;;;;;;;;;5036337;28;20287;-76
2023/05/29 08:32:07;;;;;;;9.25;5.35;;;;;;;;;;5045359;28;20720;-77
2023/05/29 08:34:34;;;;;;;9.27;5.10;;;;;;;;;;5032045;28;20229;-77
2023/05/29 08:37:01;;;;;;;8.02;5.30;;;;;;;;;;5025200;28;20289;-77
2023/05/29 08:39:30;;;;;;;10.43;6.10;;;;;;;;;;5032505;28;20252;-77
2023/05/29 08:42:02;;;;;;;9.13;5.20;;;;;;;;;;5034471;28;20219;-76
2023/05/29 08:44:31;;;;;;;10.20;5.80;;;;;;;;;;5033549;28;20200;-76
2023/05/29 08:47:02;;;;;;;10.52;5.75;;;;;;;;;;5023694;28;20188;-77
2023/05/29 08:49:31;;;;;;;8.32;5.63;;;;;;;;;;5043689;28;20250;-77
2023/05/29 08:52:03;;;;;;;11.60;6.10;;;;;;;;;;5024031;28;20196;-77
2023/05/29 08:54:33;;;;;;;11.35;5.47;;;;;;;;;;5033314;28;20614;-77
2023/05/29 08:57:01;;;;;;;9.32;4.95;;;;;;;;;;5047729;28;20579;-77
2023/05/29 08:59:29;;;;;;;9.05;5.53;;;;;;;;;;5036926;28;20223;-76
2023/05/29 09:01:56;;;;;;;10.85;5.78;;;;;;;;;;5025214;28;20200;-78
2023/05/29 09:04:23;;;;;;;9.18;5.65;;;;;;;;;;5032455;28;20684;-78
2023/05/29 09:06:52;;;;;;;11.10;6.22;;;;;;;;;;5023812;28;20957;-77
2023/05/29 09:09:20;;;;;;;7.82;5.72;;;;;;;;;;5022279;28;20620;-77
2023/05/29 09:11:49;;;;;;;9.30;5.30;;;;;;;;;;5022256;28;20193;-77
2023/05/29 09:14:31;;;;;;;12.57;5.88;;;;;;;;;;5023935;28;20223;-76
2023/05/29 09:16:58;;;;;;;11.50;5.60;;;;;;;;;;5021372;28;20228;-77
2023/05/29 09:19:26;;;;;;;9.60;6.03;;;;;;;;;;5021271;28;20315;-78
2023/05/29 09:22:01;;;;;;;7.82;6.05;;;;;;;;;;5021117;28;20289;-77
2023/05/29 09:24:29;;;;;;;9.18;6.00;;;;;;;;;;5020838;28;20669;-77
2023/05/29 09:26:57;;;;;;;9.82;5.68;;;;;;;;;;5020482;28;20300;-77
2023/05/29 09:29:25;;;;;;;8.52;5.75;;;;;;;;;;5021452;28;20279;-78
2023/05/29 09:31:52;;;;;;;9.45;5.70;;;;;;;;;;5022405;28;20751;-76
2023/05/29 09:34:19;;;;;;;10.00;5.53;;;;;;;;;;5021053;28;20270;-77
2023/05/29 09:36:46;;;;;;;9.85;5.97;;;;;;;;;;5021036;28;20215;-78
2023/05/29 09:39:15;;;;;;;10.65;6.03;;;;;;;;;;5022653;28;20283;-78
2023/05/29 09:41:45;;;;;;;10.07;5.82;;;;;;;;;;5020885;28;20255;-77
2023/05/29 09:44:15;;;;;;;9.02;5.95;;;;;;;;;;5028778;28;20255;-77
2023/05/29 09:46:42;;;;;;;13.63;6.45;;;;;;;;;;5028436;28;20291;-78
2023/05/29 09:49:13;;;;;;;8.07;5.63;;;;;;;;;;5031815;28;20280;-78
2023/05/29 09:51:42;;;;;;;11.07;6.20;;;;;;;;;;5031832;28;20239;-77
2023/05/29 09:54:16;;;;;;;8.98;6.05;;;;;;;;;;5031846;28;20196;-78
2023/05/29 09:56:43;;;;;;;9.02;5.97;;;;;;;;;;5031792;28;20193;-77
2023/05/29 09:59:12;;;;;;;10.70;6.47;;;;;;;;;;5031743;28;20283;-78
2023/05/29 10:01:43;;;;;;;9.07;6.05;;;;;;;;;;5031619;28;20235;-77
2023/05/29 10:04:11;;;;;;;9.32;5.93;;;;;;;;;;5031454;28;20262;-77
2023/05/29 10:06:39;;;;;;;10.30;6.40;;;;;;;;;;5031228;28;20639;-77
2023/05/29 10:09:08;;;;;;;11.82;5.70;;;;;;;;;;5031582;28;20222;-77
2023/05/29 10:11:36;;;;;;;9.45;5.93;;;;;;;;;;5030821;28;20201;-77
2023/05/29 10:14:04;;;;;;;13.32;6.22;;;;;;;;;;5030931;28;20673;-77
2023/05/29 10:16:35;;;;;;;11.02;6.53;;;;;;;;;;5031353;28;20196;-77
2023/05/29 10:19:08;;;;;;;8.32;5.72;;;;;;;;;;5031179;28;20576;-78
2023/05/29 10:21:38;;;;;;;10.68;5.95;;;;;;;;;;5030948;28;20239;-78
2023/05/29 10:24:07;;;;;;;8.48;6.15;;;;;;;;;;5030572;28;20283;-79
2023/05/29 10:26:37;;;;;;;10.77;6.13;;;;;;;;;;5030882;28;20216;-78
2023/05/29 10:29:07;;;;;;;9.73;6.53;;;;;;;;;;5031438;28;20284;-78
2023/05/29 10:31:35;;;;;;;11.95;6.88;;;;;;;;;;5031393;28;20223;-77
2023/05/29 10:34:11;;;;;;;12.48;6.38;;;;;;;;;;5030961;28;20259;-78
2023/05/29 10:36:42;;;;;;;9.25;6.47;;;;;;;;;;5030985;28;20673;-78
2023/05/29 10:39:10;;;;;;;12.90;6.40;;;;;;;;;;5030176;28;20254;-77
2023/05/29 10:41:40;;;;;;;11.07;6.63;;;;;;;;;;5030299;28;20305;-79
2023/05/29 10:44:22;;;;;;;10.02;6.32;;;;;;;;;;5030830;28;20231;-78
2023/05/29 10:47:08;;;;;;;8.93;6.30;;;;;;;;;;5025156;28;20228;-78
2023/05/29 10:49:37;;;;;;;9.57;6.10;;;;;;;;;;5030028;28;20295;-78
2023/05/29 10:52:05;;;;;;;13.05;6.53;;;;;;;;;;5031401;28;20192;-78
2023/05/29 10:54:42;;;;;;;11.48;6.15;;;;;;;;;;5029475;28;20208;-76
2023/05/29 10:57:10;;;;;;;8.70;6.63;;;;;;;;;;5030930;28;20192;-77
2023/05/29 10:59:37;;;;;;;8.07;6.40;;;;;;;;;;5029918;28;20205;-78
2023/05/29 11:02:06;;;;;;;10.63;6.05;;;;;;;;;;5030525;28;20225;-78
2023/05/29 11:04:34;;;;;;;7.38;6.05;;;;;;;;;;5030772;28;20208;-78
2023/05/29 11:07:06;;;;;;;9.65;6.20;;;;;;;;;;5029188;28;20193;-77
2023/05/29 11:09:35;;;;;;;9.57;6.20;;;;;;;;;;5029298;28;20205;-78
2023/05/29 11:12:24;;;;;;;9.82;5.97;;;;;;;;;;5030563;28;20204;-77
2023/05/29 11:14:55;;;;;;;10.10;7.20;;;;;;;;;;5024204;28;20205;-78
2023/05/29 11:17:40;;;;;;;10.82;6.05;;;;;;;;;;5030718;28;20196;-80
2023/05/29 11:20:08;;;;;;;9.23;6.38;;;;;;;;;;5026962;28;20216;-80
2023/05/29 11:22:51;;;;;;;10.02;5.90;;;;;;;;;;5030121;28;20199;-77
2023/05/29 11:25:18;;;;;;;12.38;6.65;;;;;;;;;;5030783;28;20291;-78
2023/05/29 11:27:45;;;;;;;8.45;6.85;;;;;;;;;;5023003;28;20291;-79
2023/05/29 11:30:13;;;;;;;9.68;6.32;;;;;;;;;;5030364;28;20307;-79
2023/05/29 11:32:41;;;;;;;8.70;6.32;;;;;;;;;;5030288;28;20283;-79
2023/05/29 11:35:09;;;;;;;10.05;6.30;;;;;;;;;;5029597;28;20315;-79
2023/05/29 11:37:37;;;;;;;8.50;6.57;;;;;;;;;;5030267;28;20219;-78
2023/05/29 11:40:07;;;;;;;9.98;5.88;;;;;;;;;;5033887;28;20196;-78
2023/05/29 11:42:34;;;;;;;11.00;5.97;;;;;;;;;;5033929;28;20197;-79
2023/05/29 11:45:11;;;;;;;8.23;5.68;;;;;;;;;;5033956;28;20203;-79
2023/05/29 11:47:51;;;;;;;12.32;6.10;;;;;;;;;;5034362;28;20319;-79
2023/05/29 11:50:20;;;;;;;9.93;5.97;;;;;;;;;;5033110;28;20247;-78
2023/05/29 11:52:47;;;;;;;9.70;6.35;;;;;;;;;;4682637;28;10000068;-77
2023/05/29 11:55:16;;;;;;;11.10;5.80;;;;;;;;;;5030517;28;20314;-78
2023/05/29 11:57:43;;;;;;;29.20;7.35;;;;;;;;;;5030988;28;20232;-77
2023/05/29 12:00:14;;;;;;;9.25;5.85;;;;;;;;;;5030154;28;20629;-78
2023/05/29 12:02:42;;;;;;;8.10;5.40;;;;;;;;;;5027400;28;20212;-76
2023/05/29 12:05:12;;;;;;;7.65;5.80;;;;;;;;;;5029922;28;20196;-77
2023/05/29 12:07:39;;;;;;;9.57;6.07;;;;;;;;;;5030514;28;20200;-79
2023/05/29 12:10:13;;;;;;;9.23;5.88;;;;;;;;;;5030511;28;20299;-78
2023/05/29 12:12:41;;;;;;;8.77;6.03;;;;;;;;;;5030239;28;20200;-77
2023/05/29 12:15:09;;;;;;;10.68;6.80;;;;;;;;;;5041729;28;20265;-78
2023/05/29 12:17:36;;;;;;;9.05;5.80;;;;;;;;;;5043399;28;20205;-77
2023/05/29 12:20:06;;;;;;;10.30;6.20;;;;;;;;;;5029453;28;20287;-78
2023/05/29 12:22:37;;;;;;;9.30;5.72;;;;;;;;;;5029150;28;20996;-78
2023/05/29 12:25:08;;;;;;;10.93;6.32;;;;;;;;;;5030356;28;20639;-78
2023/05/29 12:27:41;;;;;;;9.23;6.10;;;;;;;;;;5028403;28;20200;-76
2023/05/29 12:30:10;;;;;;;9.80;6.10;;;;;;;;;;5029821;28;20678;-77
2023/05/29 12:32:38;;;;;;;9.18;5.93;;;;;;;;;;5030160;28;20228;-79
2023/05/29 12:35:13;;;;;;;12.95;6.43;;;;;;;;;;5026375;28;20960;-79
2023/05/29 12:37:43;;;;;;;9.82;6.30;;;;;;;;;;5029994;28;20204;-77
2023/05/29 12:40:11;;;;;;;10.45;6.00;;;;;;;;;;5029003;28;20207;-77
2023/05/29 12:42:39;;;;;;;11.90;6.22;;;;;;;;;;5029613;28;20977;-79
2023/05/29 12:45:09;;;;;;;9.20;5.80;;;;;;;;;;5029624;28;20201;-76
2023/05/29 12:47:37;;;;;;;10.40;5.50;;;;;;;;;;5031733;28;20204;-77
2023/05/29 12:50:21;;;;;;;8.38;6.18;;;;;;;;;;5032260;28;20216;-78
2023/05/29 12:52:48;;;;;;;9.00;5.85;;;;;;;;;;5032759;28;20210;-77
2023/05/29 12:55:15;;;;;;;8.38;5.50;;;;;;;;;;5029663;28;20291;-78
2023/05/29 12:57:44;;;;;;;8.38;6.00;;;;;;;;;;5031350;28;20283;-78
2023/05/29 13:00:12;;;;;;;7.97;5.40;;;;;;;;;;5030343;28;20208;-78
2023/05/29 13:02:41;;;;;;;9.80;5.40;;;;;;;;;;5024236;28;20197;-78
2023/05/29 13:05:08;;;;;;;8.77;5.00;;;;;;;;;;5029952;28;20589;-79
2023/05/29 13:07:35;;;;;;;10.15;5.72;;;;;;;;;;5030009;28;20330;-84
2023/05/29 13:10:03;;;;;;;9.55;6.30;;;;;;;;;;5026875;28;20664;-77
2023/05/29 13:12:30;;;;;;;11.15;5.57;;;;;;;;;;5031471;28;20250;-77
2023/05/29 13:14:57;;;;;;;8.52;5.57;;;;;;;;;;5035987;28;20295;-79
2023/05/29 13:17:24;;;;;;;7.25;5.70;;;;;;;;;;5031468;28;20655;-77
2023/05/29 13:19:53;;;;;;;11.15;5.20;;;;;;;;;;5029884;28;20303;-79
2023/05/29 13:22:20;;;;;;;8.20;4.97;;;;;;;;;;5023991;28;20841;-77
2023/05/29 13:24:47;;;;;;;8.82;5.15;;;;;;;;;;5027812;28;20295;-76
2023/05/29 13:27:15;;;;;;;6.97;5.30;;;;;;;;;;5029983;28;20679;-75
2023/05/29 13:29:43;;;;;;;9.80;5.35;;;;;;;;;;5030866;28;20212;-74
2023/05/29 13:32:10;;;;;;;6.13;4.95;;;;;;;;;;5025809;28;20280;-76
2023/05/29 13:34:37;;;;;;;8.68;5.50;;;;;;;;;;5023103;28;20315;-77
2023/05/29 13:37:06;;;;;;;8.02;5.53;;;;;;;;;;5025029;28;20223;-76
2023/05/29 13:39:33;;;;;;;9.27;5.28;;;;;;;;;;5028844;28;20207;-76
2023/05/29 13:42:01;;;;;;;9.90;5.75;;;;;;;;;;5020128;28;20225;-76
2023/05/29 13:44:28;;;;;;;8.80;4.80;;;;;;;;;;5024410;28;20204;-77
2023/05/29 13:46:55;;;;;;;6.88;4.97;;;;;;;;;;5032658;28;20283;-78
2023/05/29 13:49:22;;;;;;;6.88;4.75;;;;;;;;;;5045252;28;20196;-77
2023/05/29 13:51:49;;;;;;;8.98;5.15;;;;;;;;;;5030555;28;20295;-78
2023/05/29 13:54:18;;;;;;;7.35;5.45;;;;;;;;;;5049580;28;20290;-77
2023/05/29 13:56:45;;;;;;;7.55;4.93;;;;;;;;;;5048004;28;20207;-77
2023/05/29 13:59:12;;;;;;;5.68;4.43;;;;;;;;;;5037753;28;20250;-77
2023/05/29 14:01:40;;;;;;;14.23;5.20;;;;;;;;;;5037385;28;20234;-76
2023/05/29 14:04:07;;;;;;;6.80;5.22;;;;;;;;;;5028568;28;20279;-79
2023/05/29 14:06:36;;;;;;;8.18;4.85;;;;;;;;;;5029399;28;20279;-78
2023/05/29 14:09:04;;;;;;;11.43;5.40;;;;;;;;;;5032364;28;20575;-77
2023/05/29 14:11:36;;;;;;;7.10;4.88;;;;;;;;;;5027024;28;20206;-78
2023/05/29 14:14:04;;;;;;;10.73;5.32;;;;;;;;;;5029892;28;20203;-76
2023/05/29 14:16:31;;;;;;;6.95;4.80;;;;;;;;;;5050178;28;20242;-76
2023/05/29 14:18:58;;;;;;;7.18;4.60;;;;;;;;;;5034611;28;20207;-78
2023/05/29 14:21:25;;;;;;;9.88;5.18;;;;;;;;;;5037221;28;20251;-78
2023/05/29 14:23:53;;;;;;;6.03;4.75;;;;;;;;;;5030911;28;20188;-77
2023/05/29 14:26:20;;;;;;;6.35;5.13;;;;;;;;;;5023373;28;20231;-77
2023/05/29 14:28:48;;;;;;;7.75;5.07;;;;;;;;;;5028582;28;20204;-77
2023/05/29 14:31:15;;;;;;;7.80;5.20;;;;;;;;;;5036672;28;20258;-76
2023/05/29 14:33:43;;;;;;;6.72;5.10;;;;;;;;;;5038704;28;20307;-76
2023/05/29 14:36:10;;;;;;;8.63;5.00;;;;;;;;;;5030318;28;20200;-76
2023/05/29 14:38:37;;;;;;;7.95;5.40;;;;;;;;;;5033148;28;20291;-76
2023/05/29 14:41:04;;;;;;;7.40;5.18;;;;;;;;;;5026633;28;20216;-77